sensor_id;sensor_type;location;lat;lon;timestamp;P1;durP1;ratioP1;P2;durP2;ratioP2
18905;SDS011;9585;51.018;4.282;2022-10-16T00:01:40;2.35;;;1.00;;
18905;SDS011;9585;51.018;4.282;2022-10-16T00:04:08;1.13;;;0.93;;
18905;SDS011;9585;51.018;4.282;2022-10-16T00:06:36;1.30;;;0.90;;
18905;SDS011;9585;51.018;4.282;2022-10-16T00:09:03;1.67;;;0.90;;
18905;SDS011;9585;51.018;4.282;2022-10-16T00:11:31;1.20;;;1.02;;
18905;SDS011;9585;51.018;4.282;2022-10-16T00:14:02;3.25;;;0.98;;
18905;SDS011;9585;51.018;4.282;2022-10-16T00:16:33;2.95;;;1.00;;
18905;SDS011;9585;51.018;4.282;2022-10-16T00:19:01;1.92;;;1.05;;
18905;SDS011;9585;51.018;4.282;2022-10-16T00:21:29;2.45;;;0.93;;
18905;SDS011;9585;51.018;4.282;2022-10-16T00:23:58;2.10;;;1.10;;
18905;SDS011;9585;51.018;4.282;2022-10-16T00:26:27;1.55;;;1.15;;
18905;SDS011;9585;51.018;4.282;2022-10-16T00:28:55;1.33;;;0.75;;
18905;SDS011;9585;51.018;4.282;2022-10-16T00:31:23;1.67;;;0.88;;
18905;SDS011;9585;51.018;4.282;2022-10-16T00:33:52;2.17;;;0.85;;
18905;SDS011;9585;51.018;4.282;2022-10-16T00:36:26;1.00;;;0.90;;
18905;SDS011;9585;51.018;4.282;2022-10-16T00:38:54;1.75;;;0.82;;
18905;SDS011;9585;51.018;4.282;2022-10-16T00:41:23;1.65;;;0.80;;
18905;SDS011;9585;51.018;4.282;2022-10-16T00:43:52;1.60;;;0.80;;
18905;SDS011;9585;51.018;4.282;2022-10-16T00:46:23;1.73;;;1.13;;
18905;SDS011;9585;51.018;4.282;2022-10-16T00:48:55;1.90;;;0.98;;
18905;SDS011;9585;51.018;4.282;2022-10-16T00:51:28;1.40;;;1.00;;
18905;SDS011;9585;51.018;4.282;2022-10-16T00:53:59;2.55;;;1.00;;
18905;SDS011;9585;51.018;4.282;2022-10-16T00:56:27;1.17;;;0.90;;
18905;SDS011;9585;51.018;4.282;2022-10-16T00:58:55;0.80;;;0.80;;
18905;SDS011;9585;51.018;4.282;2022-10-16T01:01:22;1.50;;;0.90;;
18905;SDS011;9585;51.018;4.282;2022-10-16T01:03:49;0.82;;;0.80;;
18905;SDS011;9585;51.018;4.282;2022-10-16T01:06:25;1.42;;;0.98;;
18905;SDS011;9585;51.018;4.282;2022-10-16T01:09:09;1.38;;;1.00;;
18905;SDS011;9585;51.018;4.282;2022-10-16T01:11:44;1.33;;;0.82;;
18905;SDS011;9585;51.018;4.282;2022-10-16T01:14:17;1.55;;;1.10;;
18905;SDS011;9585;51.018;4.282;2022-10-16T01:16:49;1.40;;;1.10;;
18905;SDS011;9585;51.018;4.282;2022-10-16T01:19:26;1.80;;;1.20;;
18905;SDS011;9585;51.018;4.282;2022-10-16T01:22:09;2.22;;;1.00;;
18905;SDS011;9585;51.018;4.282;2022-10-16T01:24:38;1.25;;;1.10;;
18905;SDS011;9585;51.018;4.282;2022-10-16T01:27:12;2.40;;;0.95;;
18905;SDS011;9585;51.018;4.282;2022-10-16T01:29:44;1.23;;;0.90;;
18905;SDS011;9585;51.018;4.282;2022-10-16T01:32:20;1.95;;;1.15;;
18905;SDS011;9585;51.018;4.282;2022-10-16T01:34:54;2.65;;;1.25;;
18905;SDS011;9585;51.018;4.282;2022-10-16T01:37:32;1.33;;;1.10;;
18905;SDS011;9585;51.018;4.282;2022-10-16T01:40:05;1.77;;;1.20;;
18905;SDS011;9585;51.018;4.282;2022-10-16T01:42:37;1.83;;;1.10;;
18905;SDS011;9585;51.018;4.282;2022-10-16T01:45:08;1.30;;;1.20;;
18905;SDS011;9585;51.018;4.282;2022-10-16T01:47:39;3.80;;;1.23;;
18905;SDS011;9585;51.018;4.282;2022-10-16T01:50:09;1.58;;;1.27;;
18905;SDS011;9585;51.018;4.282;2022-10-16T01:52:37;2.63;;;1.13;;
18905;SDS011;9585;51.018;4.282;2022-10-16T01:55:09;3.25;;;1.20;;
18905;SDS011;9585;51.018;4.282;2022-10-16T01:57:41;3.13;;;1.40;;
18905;SDS011;9585;51.018;4.282;2022-10-16T02:00:12;2.05;;;1.23;;
18905;SDS011;9585;51.018;4.282;2022-10-16T02:02:41;3.95;;;1.63;;
18905;SDS011;9585;51.018;4.282;2022-10-16T02:05:13;3.13;;;1.45;;
18905;SDS011;9585;51.018;4.282;2022-10-16T02:07:45;1.77;;;1.30;;
18905;SDS011;9585;51.018;4.282;2022-10-16T02:10:13;2.00;;;1.00;;
18905;SDS011;9585;51.018;4.282;2022-10-16T02:12:44;3.47;;;1.50;;
18905;SDS011;9585;51.018;4.282;2022-10-16T02:15:15;2.38;;;1.20;;
18905;SDS011;9585;51.018;4.282;2022-10-16T02:17:43;3.08;;;1.40;;
18905;SDS011;9585;51.018;4.282;2022-10-16T02:20:10;1.63;;;1.30;;
18905;SDS011;9585;51.018;4.282;2022-10-16T02:22:39;2.38;;;1.40;;
18905;SDS011;9585;51.018;4.282;2022-10-16T02:25:09;2.20;;;1.30;;
18905;SDS011;9585;51.018;4.282;2022-10-16T02:27:42;3.28;;;1.48;;
18905;SDS011;9585;51.018;4.282;2022-10-16T02:30:18;2.97;;;1.35;;
18905;SDS011;9585;51.018;4.282;2022-10-16T02:32:50;3.80;;;1.30;;
18905;SDS011;9585;51.018;4.282;2022-10-16T02:35:18;2.75;;;1.40;;
18905;SDS011;9585;51.018;4.282;2022-10-16T02:37:48;1.60;;;1.33;;
18905;SDS011;9585;51.018;4.282;2022-10-16T02:40:17;1.73;;;1.40;;
18905;SDS011;9585;51.018;4.282;2022-10-16T02:42:49;3.67;;;1.58;;
18905;SDS011;9585;51.018;4.282;2022-10-16T02:45:18;1.67;;;1.20;;
18905;SDS011;9585;51.018;4.282;2022-10-16T02:47:45;2.47;;;1.55;;
18905;SDS011;9585;51.018;4.282;2022-10-16T02:50:13;2.92;;;1.27;;
18905;SDS011;9585;51.018;4.282;2022-10-16T02:52:40;2.95;;;1.27;;
18905;SDS011;9585;51.018;4.282;2022-10-16T02:55:08;2.30;;;1.60;;
18905;SDS011;9585;51.018;4.282;2022-10-16T02:57:36;2.38;;;1.60;;
18905;SDS011;9585;51.018;4.282;2022-10-16T03:00:08;1.83;;;1.42;;
18905;SDS011;9585;51.018;4.282;2022-10-16T03:02:36;2.75;;;1.52;;
18905;SDS011;9585;51.018;4.282;2022-10-16T03:05:04;2.67;;;1.30;;
18905;SDS011;9585;51.018;4.282;2022-10-16T03:07:32;3.55;;;1.52;;
18905;SDS011;9585;51.018;4.282;2022-10-16T03:10:00;4.05;;;1.67;;
18905;SDS011;9585;51.018;4.282;2022-10-16T03:12:27;2.40;;;1.67;;
18905;SDS011;9585;51.018;4.282;2022-10-16T03:14:55;1.98;;;1.50;;
18905;SDS011;9585;51.018;4.282;2022-10-16T03:17:24;4.18;;;1.50;;
18905;SDS011;9585;51.018;4.282;2022-10-16T03:19:52;3.97;;;1.55;;
18905;SDS011;9585;51.018;4.282;2022-10-16T03:22:19;2.20;;;1.65;;
18905;SDS011;9585;51.018;4.282;2022-10-16T03:24:48;2.60;;;1.55;;
18905;SDS011;9585;51.018;4.282;2022-10-16T03:27:15;2.47;;;1.58;;
18905;SDS011;9585;51.018;4.282;2022-10-16T03:29:45;2.08;;;1.70;;
18905;SDS011;9585;51.018;4.282;2022-10-16T03:32:13;3.28;;;1.60;;
18905;SDS011;9585;51.018;4.282;2022-10-16T03:34:41;1.60;;;1.50;;
18905;SDS011;9585;51.018;4.282;2022-10-16T03:37:09;3.10;;;1.80;;
18905;SDS011;9585;51.018;4.282;2022-10-16T03:39:37;2.53;;;1.40;;
18905;SDS011;9585;51.018;4.282;2022-10-16T03:42:04;3.50;;;1.80;;
18905;SDS011;9585;51.018;4.282;2022-10-16T03:44:32;2.45;;;2.00;;
18905;SDS011;9585;51.018;4.282;2022-10-16T03:46:59;2.65;;;1.80;;
18905;SDS011;9585;51.018;4.282;2022-10-16T03:49:26;2.45;;;1.73;;
18905;SDS011;9585;51.018;4.282;2022-10-16T03:51:55;1.80;;;1.42;;
18905;SDS011;9585;51.018;4.282;2022-10-16T03:54:23;3.25;;;1.80;;
18905;SDS011;9585;51.018;4.282;2022-10-16T03:56:51;3.53;;;1.60;;
18905;SDS011;9585;51.018;4.282;2022-10-16T03:59:18;2.92;;;1.90;;
18905;SDS011;9585;51.018;4.282;2022-10-16T04:01:45;3.60;;;1.65;;
18905;SDS011;9585;51.018;4.282;2022-10-16T04:04:16;3.80;;;1.75;;
18905;SDS011;9585;51.018;4.282;2022-10-16T04:06:43;1.80;;;1.40;;
18905;SDS011;9585;51.018;4.282;2022-10-16T04:09:12;2.13;;;1.90;;
18905;SDS011;9585;51.018;4.282;2022-10-16T04:11:42;3.00;;;1.65;;
18905;SDS011;9585;51.018;4.282;2022-10-16T04:14:10;2.20;;;1.67;;
18905;SDS011;9585;51.018;4.282;2022-10-16T04:16:37;2.90;;;1.70;;
18905;SDS011;9585;51.018;4.282;2022-10-16T04:19:04;2.47;;;1.63;;
18905;SDS011;9585;51.018;4.282;2022-10-16T04:21:32;2.58;;;1.77;;
18905;SDS011;9585;51.018;4.282;2022-10-16T04:23:59;2.35;;;1.80;;
18905;SDS011;9585;51.018;4.282;2022-10-16T04:26:28;2.17;;;1.60;;
18905;SDS011;9585;51.018;4.282;2022-10-16T04:28:56;2.55;;;1.77;;
18905;SDS011;9585;51.018;4.282;2022-10-16T04:31:23;2.70;;;2.08;;
18905;SDS011;9585;51.018;4.282;2022-10-16T04:33:51;3.50;;;1.75;;
18905;SDS011;9585;51.018;4.282;2022-10-16T04:36:18;2.53;;;1.77;;
18905;SDS011;9585;51.018;4.282;2022-10-16T04:38:45;3.95;;;1.90;;
18905;SDS011;9585;51.018;4.282;2022-10-16T04:41:13;2.80;;;2.17;;
18905;SDS011;9585;51.018;4.282;2022-10-16T04:43:41;2.33;;;1.80;;
18905;SDS011;9585;51.018;4.282;2022-10-16T04:46:09;3.47;;;1.77;;
18905;SDS011;9585;51.018;4.282;2022-10-16T04:48:36;3.78;;;1.80;;
18905;SDS011;9585;51.018;4.282;2022-10-16T04:51:06;2.42;;;1.55;;
18905;SDS011;9585;51.018;4.282;2022-10-16T04:53:34;2.60;;;1.80;;
18905;SDS011;9585;51.018;4.282;2022-10-16T04:56:02;2.17;;;1.63;;
18905;SDS011;9585;51.018;4.282;2022-10-16T04:58:30;2.55;;;1.75;;
18905;SDS011;9585;51.018;4.282;2022-10-16T05:00:59;5.60;;;1.65;;
18905;SDS011;9585;51.018;4.282;2022-10-16T05:03:27;3.15;;;1.65;;
18905;SDS011;9585;51.018;4.282;2022-10-16T05:05:54;4.15;;;2.10;;
18905;SDS011;9585;51.018;4.282;2022-10-16T05:08:21;2.20;;;1.45;;
18905;SDS011;9585;51.018;4.282;2022-10-16T05:10:48;3.40;;;1.77;;
18905;SDS011;9585;51.018;4.282;2022-10-16T05:13:16;2.75;;;1.80;;
18905;SDS011;9585;51.018;4.282;2022-10-16T05:15:46;4.43;;;1.60;;
18905;SDS011;9585;51.018;4.282;2022-10-16T05:18:15;2.38;;;1.73;;
18905;SDS011;9585;51.018;4.282;2022-10-16T05:20:42;2.10;;;1.58;;
18905;SDS011;9585;51.018;4.282;2022-10-16T05:23:10;4.38;;;1.67;;
18905;SDS011;9585;51.018;4.282;2022-10-16T05:25:37;3.28;;;1.70;;
18905;SDS011;9585;51.018;4.282;2022-10-16T05:28:05;2.83;;;1.60;;
18905;SDS011;9585;51.018;4.282;2022-10-16T05:30:32;2.58;;;1.52;;
18905;SDS011;9585;51.018;4.282;2022-10-16T05:32:59;2.58;;;1.70;;
18905;SDS011;9585;51.018;4.282;2022-10-16T05:35:28;1.88;;;1.40;;
18905;SDS011;9585;51.018;4.282;2022-10-16T05:37:55;3.50;;;1.70;;
18905;SDS011;9585;51.018;4.282;2022-10-16T05:40:23;3.45;;;1.50;;
18905;SDS011;9585;51.018;4.282;2022-10-16T05:42:54;3.10;;;1.60;;
18905;SDS011;9585;51.018;4.282;2022-10-16T05:45:21;2.88;;;1.63;;
18905;SDS011;9585;51.018;4.282;2022-10-16T05:47:48;3.72;;;1.75;;
18905;SDS011;9585;51.018;4.282;2022-10-16T05:50:16;2.78;;;1.58;;
18905;SDS011;9585;51.018;4.282;2022-10-16T05:52:45;3.78;;;1.90;;
18905;SDS011;9585;51.018;4.282;2022-10-16T05:55:12;2.08;;;1.60;;
18905;SDS011;9585;51.018;4.282;2022-10-16T05:57:40;2.78;;;1.80;;
18905;SDS011;9585;51.018;4.282;2022-10-16T06:00:08;2.83;;;1.90;;
18905;SDS011;9585;51.018;4.282;2022-10-16T06:02:36;3.05;;;1.65;;
18905;SDS011;9585;51.018;4.282;2022-10-16T06:05:04;3.90;;;1.80;;
18905;SDS011;9585;51.018;4.282;2022-10-16T06:07:33;2.03;;;1.70;;
18905;SDS011;9585;51.018;4.282;2022-10-16T06:10:03;4.25;;;2.10;;
18905;SDS011;9585;51.018;4.282;2022-10-16T06:12:31;2.58;;;1.70;;
18905;SDS011;9585;51.018;4.282;2022-10-16T06:14:58;3.30;;;1.80;;
18905;SDS011;9585;51.018;4.282;2022-10-16T06:17:25;3.67;;;1.90;;
18905;SDS011;9585;51.018;4.282;2022-10-16T06:19:52;2.15;;;1.70;;
18905;SDS011;9585;51.018;4.282;2022-10-16T06:22:20;3.85;;;1.77;;
18905;SDS011;9585;51.018;4.282;2022-10-16T06:24:47;3.13;;;1.48;;
18905;SDS011;9585;51.018;4.282;2022-10-16T06:27:16;1.98;;;1.55;;
18905;SDS011;9585;51.018;4.282;2022-10-16T06:29:43;4.15;;;1.70;;
18905;SDS011;9585;51.018;4.282;2022-10-16T06:32:11;2.92;;;1.90;;
18905;SDS011;9585;51.018;4.282;2022-10-16T06:34:38;3.95;;;1.85;;
18905;SDS011;9585;51.018;4.282;2022-10-16T06:37:06;2.22;;;1.73;;
18905;SDS011;9585;51.018;4.282;2022-10-16T06:39:33;2.70;;;1.80;;
18905;SDS011;9585;51.018;4.282;2022-10-16T06:42:00;1.70;;;1.30;;
18905;SDS011;9585;51.018;4.282;2022-10-16T06:44:29;3.58;;;1.88;;
18905;SDS011;9585;51.018;4.282;2022-10-16T06:46:56;5.47;;;2.00;;
18905;SDS011;9585;51.018;4.282;2022-10-16T06:49:23;1.88;;;1.52;;
18905;SDS011;9585;51.018;4.282;2022-10-16T06:51:51;3.28;;;2.00;;
18905;SDS011;9585;51.018;4.282;2022-10-16T06:54:18;5.40;;;2.20;;
18905;SDS011;9585;51.018;4.282;2022-10-16T06:56:45;3.17;;;1.80;;
18905;SDS011;9585;51.018;4.282;2022-10-16T06:59:12;3.42;;;1.80;;
18905;SDS011;9585;51.018;4.282;2022-10-16T07:01:41;3.20;;;1.80;;
18905;SDS011;9585;51.018;4.282;2022-10-16T07:04:09;2.70;;;1.50;;
18905;SDS011;9585;51.018;4.282;2022-10-16T07:06:36;3.75;;;1.58;;
18905;SDS011;9585;51.018;4.282;2022-10-16T07:09:06;2.38;;;1.58;;
18905;SDS011;9585;51.018;4.282;2022-10-16T07:11:36;3.33;;;1.50;;
18905;SDS011;9585;51.018;4.282;2022-10-16T07:14:04;4.38;;;1.65;;
18905;SDS011;9585;51.018;4.282;2022-10-16T07:16:37;3.05;;;1.30;;
18905;SDS011;9585;51.018;4.282;2022-10-16T07:19:07;2.55;;;1.40;;
18905;SDS011;9585;51.018;4.282;2022-10-16T07:21:37;2.38;;;1.05;;
18905;SDS011;9585;51.018;4.282;2022-10-16T07:24:05;3.22;;;1.50;;
18905;SDS011;9585;51.018;4.282;2022-10-16T07:26:34;2.03;;;1.08;;
18905;SDS011;9585;51.018;4.282;2022-10-16T07:29:04;2.85;;;1.20;;
18905;SDS011;9585;51.018;4.282;2022-10-16T07:31:31;2.58;;;1.08;;
18905;SDS011;9585;51.018;4.282;2022-10-16T07:33:59;2.05;;;1.20;;
18905;SDS011;9585;51.018;4.282;2022-10-16T07:36:31;2.08;;;1.20;;
18905;SDS011;9585;51.018;4.282;2022-10-16T07:38:58;4.43;;;1.00;;
18905;SDS011;9585;51.018;4.282;2022-10-16T07:41:26;2.05;;;1.13;;
18905;SDS011;9585;51.018;4.282;2022-10-16T07:43:54;4.00;;;1.30;;
18905;SDS011;9585;51.018;4.282;2022-10-16T07:46:25;2.45;;;1.05;;
18905;SDS011;9585;51.018;4.282;2022-10-16T07:48:53;3.50;;;1.00;;
18905;SDS011;9585;51.018;4.282;2022-10-16T07:51:21;1.88;;;0.98;;
18905;SDS011;9585;51.018;4.282;2022-10-16T07:53:52;2.17;;;1.02;;
18905;SDS011;9585;51.018;4.282;2022-10-16T07:56:19;1.85;;;0.85;;
18905;SDS011;9585;51.018;4.282;2022-10-16T07:58:49;2.40;;;1.00;;
18905;SDS011;9585;51.018;4.282;2022-10-16T08:01:17;2.17;;;1.00;;
18905;SDS011;9585;51.018;4.282;2022-10-16T08:03:46;3.50;;;1.05;;
18905;SDS011;9585;51.018;4.282;2022-10-16T08:06:15;1.35;;;0.80;;
18905;SDS011;9585;51.018;4.282;2022-10-16T08:08:42;2.20;;;1.10;;
18905;SDS011;9585;51.018;4.282;2022-10-16T08:11:16;2.13;;;0.90;;
18905;SDS011;9585;51.018;4.282;2022-10-16T08:13:44;1.70;;;1.30;;
18905;SDS011;9585;51.018;4.282;2022-10-16T08:16:12;1.75;;;1.20;;
18905;SDS011;9585;51.018;4.282;2022-10-16T08:18:39;3.45;;;1.23;;
18905;SDS011;9585;51.018;4.282;2022-10-16T08:21:08;1.85;;;1.20;;
18905;SDS011;9585;51.018;4.282;2022-10-16T08:23:39;2.85;;;1.20;;
18905;SDS011;9585;51.018;4.282;2022-10-16T08:26:07;2.80;;;1.20;;
18905;SDS011;9585;51.018;4.282;2022-10-16T08:28:42;2.13;;;1.17;;
18905;SDS011;9585;51.018;4.282;2022-10-16T08:31:10;2.65;;;1.10;;
18905;SDS011;9585;51.018;4.282;2022-10-16T08:33:40;3.28;;;1.27;;
18905;SDS011;9585;51.018;4.282;2022-10-16T08:36:15;2.28;;;1.17;;
18905;SDS011;9585;51.018;4.282;2022-10-16T08:38:43;5.25;;;2.58;;
18905;SDS011;9585;51.018;4.282;2022-10-16T08:41:17;2.17;;;1.27;;
18905;SDS011;9585;51.018;4.282;2022-10-16T08:44:13;4.35;;;1.40;;
18905;SDS011;9585;51.018;4.282;2022-10-16T08:46:58;2.80;;;1.30;;
18905;SDS011;9585;51.018;4.282;2022-10-16T08:49:34;3.53;;;1.45;;
18905;SDS011;9585;51.018;4.282;2022-10-16T08:52:03;1.88;;;1.00;;
18905;SDS011;9585;51.018;4.282;2022-10-16T08:54:37;3.17;;;1.20;;
18905;SDS011;9585;51.018;4.282;2022-10-16T08:57:09;3.20;;;0.98;;
18905;SDS011;9585;51.018;4.282;2022-10-16T08:59:42;3.70;;;1.10;;
18905;SDS011;9585;51.018;4.282;2022-10-16T09:02:18;3.03;;;1.10;;
18905;SDS011;9585;51.018;4.282;2022-10-16T09:04:57;2.90;;;1.10;;
18905;SDS011;9585;51.018;4.282;2022-10-16T09:07:45;3.00;;;0.90;;
18905;SDS011;9585;51.018;4.282;2022-10-16T09:10:21;2.38;;;1.08;;
18905;SDS011;9585;51.018;4.282;2022-10-16T09:13:00;2.65;;;0.80;;
18905;SDS011;9585;51.018;4.282;2022-10-16T09:15:46;3.05;;;1.13;;
18905;SDS011;9585;51.018;4.282;2022-10-16T09:18:19;2.88;;;1.00;;
18905;SDS011;9585;51.018;4.282;2022-10-16T09:20:55;3.75;;;1.10;;
18905;SDS011;9585;51.018;4.282;2022-10-16T09:23:29;2.58;;;1.00;;
18905;SDS011;9585;51.018;4.282;2022-10-16T09:26:00;1.75;;;0.82;;
18905;SDS011;9585;51.018;4.282;2022-10-16T09:28:29;3.58;;;0.93;;
18905;SDS011;9585;51.018;4.282;2022-10-16T09:30:57;5.60;;;1.38;;
18905;SDS011;9585;51.018;4.282;2022-10-16T09:33:25;6.40;;;1.17;;
18905;SDS011;9585;51.018;4.282;2022-10-16T09:35:57;2.13;;;1.10;;
18905;SDS011;9585;51.018;4.282;2022-10-16T09:38:26;2.65;;;1.10;;
18905;SDS011;9585;51.018;4.282;2022-10-16T09:40:55;2.97;;;0.95;;
18905;SDS011;9585;51.018;4.282;2022-10-16T09:43:24;3.13;;;1.10;;
18905;SDS011;9585;51.018;4.282;2022-10-16T09:46:01;3.35;;;1.27;;
18905;SDS011;9585;51.018;4.282;2022-10-16T09:48:33;3.80;;;1.10;;
18905;SDS011;9585;51.018;4.282;2022-10-16T09:51:04;6.35;;;1.40;;
18905;SDS011;9585;51.018;4.282;2022-10-16T09:53:39;3.13;;;1.10;;
18905;SDS011;9585;51.018;4.282;2022-10-16T09:56:09;4.47;;;1.30;;
18905;SDS011;9585;51.018;4.282;2022-10-16T09:58:41;2.95;;;1.20;;
18905;SDS011;9585;51.018;4.282;2022-10-16T10:01:13;3.28;;;0.98;;
18905;SDS011;9585;51.018;4.282;2022-10-16T10:03:41;2.08;;;0.85;;
18905;SDS011;9585;51.018;4.282;2022-10-16T10:06:17;4.32;;;0.98;;
18905;SDS011;9585;51.018;4.282;2022-10-16T10:08:52;3.80;;;1.20;;
18905;SDS011;9585;51.018;4.282;2022-10-16T10:11:40;4.03;;;0.85;;
18905;SDS011;9585;51.018;4.282;2022-10-16T10:14:23;4.82;;;1.33;;
18905;SDS011;9585;51.018;4.282;2022-10-16T10:17:01;3.20;;;1.00;;
18905;SDS011;9585;51.018;4.282;2022-10-16T10:19:39;2.45;;;0.98;;
18905;SDS011;9585;51.018;4.282;2022-10-16T10:22:17;3.40;;;1.05;;
18905;SDS011;9585;51.018;4.282;2022-10-16T10:27:55;3.58;;;1.00;;
18905;SDS011;9585;51.018;4.282;2022-10-16T10:30:32;2.35;;;0.73;;
18905;SDS011;9585;51.018;4.282;2022-10-16T10:33:11;2.78;;;1.00;;
18905;SDS011;9585;51.018;4.282;2022-10-16T10:35:49;4.78;;;1.15;;
18905;SDS011;9585;51.018;4.282;2022-10-16T10:38:25;3.55;;;0.95;;
18905;SDS011;9585;51.018;4.282;2022-10-16T10:41:01;3.75;;;1.20;;
18905;SDS011;9585;51.018;4.282;2022-10-16T10:43:44;4.32;;;1.23;;
18905;SDS011;9585;51.018;4.282;2022-10-16T10:46:24;2.65;;;0.90;;
18905;SDS011;9585;51.018;4.282;2022-10-16T10:49:02;3.17;;;1.00;;
18905;SDS011;9585;51.018;4.282;2022-10-16T10:51:40;3.58;;;0.88;;
18905;SDS011;9585;51.018;4.282;2022-10-16T10:54:16;3.40;;;0.90;;
18905;SDS011;9585;51.018;4.282;2022-10-16T10:56:50;2.17;;;0.80;;
18905;SDS011;9585;51.018;4.282;2022-10-16T10:59:37;3.78;;;1.00;;
18905;SDS011;9585;51.018;4.282;2022-10-16T11:02:29;3.38;;;0.80;;
18905;SDS011;9585;51.018;4.282;2022-10-16T11:05:16;3.05;;;1.00;;
18905;SDS011;9585;51.018;4.282;2022-10-16T11:07:52;3.72;;;1.10;;
18905;SDS011;9585;51.018;4.282;2022-10-16T11:10:24;2.28;;;0.85;;
18905;SDS011;9585;51.018;4.282;2022-10-16T11:12:56;3.17;;;0.93;;
18905;SDS011;9585;51.018;4.282;2022-10-16T11:15:28;4.72;;;0.82;;
18905;SDS011;9585;51.018;4.282;2022-10-16T11:17:59;4.40;;;0.90;;
18905;SDS011;9585;51.018;4.282;2022-10-16T11:20:34;2.80;;;1.00;;
18905;SDS011;9585;51.018;4.282;2022-10-16T11:23:08;2.65;;;0.90;;
18905;SDS011;9585;51.018;4.282;2022-10-16T11:25:40;2.67;;;0.98;;
18905;SDS011;9585;51.018;4.282;2022-10-16T11:28:11;1.80;;;0.82;;
18905;SDS011;9585;51.018;4.282;2022-10-16T11:30:41;3.83;;;1.00;;
18905;SDS011;9585;51.018;4.282;2022-10-16T11:36:08;1.55;;;0.82;;
18905;SDS011;9585;51.018;4.282;2022-10-16T11:38:43;2.97;;;1.00;;
18905;SDS011;9585;51.018;4.282;2022-10-16T11:41:18;3.33;;;1.00;;
18905;SDS011;9585;51.018;4.282;2022-10-16T11:43:54;2.78;;;0.88;;
18905;SDS011;9585;51.018;4.282;2022-10-16T11:46:31;2.83;;;0.80;;
18905;SDS011;9585;51.018;4.282;2022-10-16T11:49:03;3.72;;;1.40;;
18905;SDS011;9585;51.018;4.282;2022-10-16T11:51:39;2.55;;;0.95;;
18905;SDS011;9585;51.018;4.282;2022-10-16T11:54:14;2.35;;;0.90;;
18905;SDS011;9585;51.018;4.282;2022-10-16T11:56:48;1.13;;;0.73;;
18905;SDS011;9585;51.018;4.282;2022-10-16T11:59:20;1.77;;;0.75;;
18905;SDS011;9585;51.018;4.282;2022-10-16T12:01:54;1.90;;;0.85;;
18905;SDS011;9585;51.018;4.282;2022-10-16T12:04:31;2.70;;;0.90;;
18905;SDS011;9585;51.018;4.282;2022-10-16T12:07:12;3.22;;;1.10;;
18905;SDS011;9585;51.018;4.282;2022-10-16T12:09:44;2.38;;;0.88;;
18905;SDS011;9585;51.018;4.282;2022-10-16T12:12:24;1.77;;;0.73;;
18905;SDS011;9585;51.018;4.282;2022-10-16T12:14:59;2.17;;;0.88;;
18905;SDS011;9585;51.018;4.282;2022-10-16T12:17:34;2.40;;;0.70;;
18905;SDS011;9585;51.018;4.282;2022-10-16T12:20:19;2.58;;;0.75;;
18905;SDS011;9585;51.018;4.282;2022-10-16T12:22:53;2.33;;;0.98;;
18905;SDS011;9585;51.018;4.282;2022-10-16T12:25:24;2.35;;;0.90;;
18905;SDS011;9585;51.018;4.282;2022-10-16T12:27:56;4.10;;;0.70;;
18905;SDS011;9585;51.018;4.282;2022-10-16T12:30:26;3.33;;;0.85;;
18905;SDS011;9585;51.018;4.282;2022-10-16T12:33:01;2.42;;;0.85;;
18905;SDS011;9585;51.018;4.282;2022-10-16T12:35:30;4.43;;;2.60;;
18905;SDS011;9585;51.018;4.282;2022-10-16T12:38:11;4.07;;;1.90;;
18905;SDS011;9585;51.018;4.282;2022-10-16T12:40:42;4.38;;;1.58;;
18905;SDS011;9585;51.018;4.282;2022-10-16T12:43:12;1.70;;;0.82;;
18905;SDS011;9585;51.018;4.282;2022-10-16T12:45:58;1.80;;;0.82;;
18905;SDS011;9585;51.018;4.282;2022-10-16T12:48:30;2.67;;;0.93;;
18905;SDS011;9585;51.018;4.282;2022-10-16T12:50:57;4.25;;;0.98;;
18905;SDS011;9585;51.018;4.282;2022-10-16T12:53:40;2.75;;;0.80;;
18905;SDS011;9585;51.018;4.282;2022-10-16T12:56:09;3.85;;;0.75;;
18905;SDS011;9585;51.018;4.282;2022-10-16T12:58:50;1.92;;;0.80;;
18905;SDS011;9585;51.018;4.282;2022-10-16T13:01:28;1.88;;;0.60;;
18905;SDS011;9585;51.018;4.282;2022-10-16T13:04:09;3.58;;;0.90;;
18905;SDS011;9585;51.018;4.282;2022-10-16T13:07:03;2.58;;;0.80;;
18905;SDS011;9585;51.018;4.282;2022-10-16T13:09:46;1.75;;;0.70;;
18905;SDS011;9585;51.018;4.282;2022-10-16T13:12:35;1.20;;;0.57;;
18905;SDS011;9585;51.018;4.282;2022-10-16T13:15:29;4.00;;;0.77;;
18905;SDS011;9585;51.018;4.282;2022-10-16T13:18:09;2.45;;;0.88;;
18905;SDS011;9585;51.018;4.282;2022-10-16T13:20:49;2.30;;;0.63;;
18905;SDS011;9585;51.018;4.282;2022-10-16T13:23:24;2.08;;;0.95;;
18905;SDS011;9585;51.018;4.282;2022-10-16T13:26:04;1.48;;;0.63;;
18905;SDS011;9585;51.018;4.282;2022-10-16T13:28:39;2.53;;;0.82;;
18905;SDS011;9585;51.018;4.282;2022-10-16T13:31:09;1.45;;;0.80;;
18905;SDS011;9585;51.018;4.282;2022-10-16T13:33:43;2.72;;;0.85;;
18905;SDS011;9585;51.018;4.282;2022-10-16T13:36:19;1.02;;;0.60;;
18905;SDS011;9585;51.018;4.282;2022-10-16T13:38:47;1.70;;;0.55;;
18905;SDS011;9585;51.018;4.282;2022-10-16T13:41:17;3.15;;;0.60;;
18905;SDS011;9585;51.018;4.282;2022-10-16T13:43:46;1.63;;;0.70;;
18905;SDS011;9585;51.018;4.282;2022-10-16T13:46:17;2.38;;;0.70;;
18905;SDS011;9585;51.018;4.282;2022-10-16T13:48:55;2.10;;;0.70;;
18905;SDS011;9585;51.018;4.282;2022-10-16T13:51:25;2.10;;;0.55;;
18905;SDS011;9585;51.018;4.282;2022-10-16T13:53:54;1.42;;;0.60;;
18905;SDS011;9585;51.018;4.282;2022-10-16T13:56:24;1.33;;;0.63;;
18905;SDS011;9585;51.018;4.282;2022-10-16T13:58:59;1.70;;;0.55;;
18905;SDS011;9585;51.018;4.282;2022-10-16T14:01:27;2.55;;;0.65;;
18905;SDS011;9585;51.018;4.282;2022-10-16T14:04:00;2.38;;;0.50;;
18905;SDS011;9585;51.018;4.282;2022-10-16T14:06:30;1.83;;;0.80;;
18905;SDS011;9585;51.018;4.282;2022-10-16T14:09:00;1.30;;;0.50;;
18905;SDS011;9585;51.018;4.282;2022-10-16T14:11:33;1.30;;;0.73;;
18905;SDS011;9585;51.018;4.282;2022-10-16T14:14:03;1.15;;;0.40;;
18905;SDS011;9585;51.018;4.282;2022-10-16T14:16:31;1.60;;;0.52;;
18905;SDS011;9585;51.018;4.282;2022-10-16T14:19:00;1.30;;;0.75;;
18905;SDS011;9585;51.018;4.282;2022-10-16T14:21:31;1.95;;;0.70;;
18905;SDS011;9585;51.018;4.282;2022-10-16T14:23:59;2.92;;;0.80;;
18905;SDS011;9585;51.018;4.282;2022-10-16T14:26:42;1.55;;;0.80;;
18905;SDS011;9585;51.018;4.282;2022-10-16T14:29:13;3.08;;;0.80;;
18905;SDS011;9585;51.018;4.282;2022-10-16T14:31:41;2.13;;;0.70;;
18905;SDS011;9585;51.018;4.282;2022-10-16T14:34:25;1.38;;;0.60;;
18905;SDS011;9585;51.018;4.282;2022-10-16T14:36:53;2.28;;;0.80;;
18905;SDS011;9585;51.018;4.282;2022-10-16T14:39:21;1.48;;;0.50;;
18905;SDS011;9585;51.018;4.282;2022-10-16T14:41:52;1.58;;;0.73;;
18905;SDS011;9585;51.018;4.282;2022-10-16T14:44:26;2.28;;;0.77;;
18905;SDS011;9585;51.018;4.282;2022-10-16T14:46:55;1.50;;;0.70;;
18905;SDS011;9585;51.018;4.282;2022-10-16T14:49:24;1.98;;;0.98;;
18905;SDS011;9585;51.018;4.282;2022-10-16T14:51:53;1.88;;;0.60;;
18905;SDS011;9585;51.018;4.282;2022-10-16T14:54:20;1.33;;;0.52;;
18905;SDS011;9585;51.018;4.282;2022-10-16T14:56:48;2.30;;;0.60;;
18905;SDS011;9585;51.018;4.282;2022-10-16T14:59:20;1.85;;;0.80;;
18905;SDS011;9585;51.018;4.282;2022-10-16T15:01:52;2.75;;;0.93;;
18905;SDS011;9585;51.018;4.282;2022-10-16T15:04:19;3.20;;;0.90;;
18905;SDS011;9585;51.018;4.282;2022-10-16T15:06:46;3.35;;;1.00;;
18905;SDS011;9585;51.018;4.282;2022-10-16T15:09:14;2.08;;;0.80;;
18905;SDS011;9585;51.018;4.282;2022-10-16T15:11:41;1.40;;;0.70;;
18905;SDS011;9585;51.018;4.282;2022-10-16T15:14:12;1.33;;;0.57;;
18905;SDS011;9585;51.018;4.282;2022-10-16T15:16:39;1.95;;;0.90;;
18905;SDS011;9585;51.018;4.282;2022-10-16T15:19:07;2.25;;;0.73;;
18905;SDS011;9585;51.018;4.282;2022-10-16T15:21:34;1.33;;;1.00;;
18905;SDS011;9585;51.018;4.282;2022-10-16T15:24:02;1.55;;;1.05;;
18905;SDS011;9585;51.018;4.282;2022-10-16T15:26:35;3.67;;;1.30;;
18905;SDS011;9585;51.018;4.282;2022-10-16T15:29:02;4.65;;;0.93;;
18905;SDS011;9585;51.018;4.282;2022-10-16T15:31:31;2.45;;;0.90;;